Time;durP1;ratioP1;P1;durP2;ratioP2;P2;SDS_P1;SDS_P2;PMS_P1;PMS_P2;Temp;Humidity;BMP_temperature;BMP_pressure;BME280_temperature;BME280_humidity;BME280_pressure;Samples;Min_cycle;Max_cycle;Signal;HPM_P1;HPM_P2
2021/09/30 00:00:55;;;;;;;;;0.75;0.75;;;;;22.31;43.11;102486.28;5024375;28;51313;-55
2021/09/30 00:03:20;;;;;;;;;0.50;0.50;;;;;22.32;42.98;102489.91;5020126;28;51151;-55
2021/09/30 00:05:46;;;;;;;;;1.00;1.00;;;;;22.32;43.54;102489.91;5023765;28;51306;-57
2021/09/30 00:08:11;;;;;;;;;1.50;1.00;;;;;22.30;43.03;102479.06;5021804;28;51399;-54
2021/09/30 00:10:39;;;;;;;;;1.00;1.00;;;;;22.30;43.20;102473.53;5022953;28;51863;-54
2021/09/30 00:13:24;;;;;;;;;1.00;1.00;;;;;22.29;43.09;102488.38;5034436;28;51264;-55
2021/09/30 02:24:03;;;;;;;;;0.00;0.00;;;;;21.51;38.93;102456.78;5021727;28;51338;-53
2021/09/30 02:59:16;;;;;;;;;0.00;0.00;;;;;21.22;38.85;102426.44;5031934;28;51360;-52
2021/09/30 03:01:45;;;;;;;;;2.00;0.00;;;;;21.20;39.28;102425.78;5030066;28;51374;-53
2021/09/30 03:04:12;;;;;;;;;2.75;0.75;;;;;21.18;39.29;102417.69;5034746;28;51947;-51
2021/09/30 03:06:40;;;;;;;;;1.50;0.00;;;;;21.17;38.94;102424.25;5036438;28;51067;-54
2021/09/30 03:09:07;;;;;;;;;0.00;0.00;;;;;21.15;39.07;102426.31;5026652;28;51156;-54
2021/09/30 03:11:37;;;;;;;;;0.00;0.00;;;;;21.14;39.21;102426.50;5035749;28;50957;-53
2021/09/30 03:14:04;;;;;;;;;0.00;0.00;;;;;21.12;38.84;102423.09;5028692;28;52091;-50
2021/09/30 03:16:44;;;;;;;;;0.00;0.00;;;;;21.11;38.99;102424.16;5016764;28;51259;-54
2021/09/30 03:24:37;;;;;;;;;0.25;0.25;;;;;21.06;38.73;102435.75;5035067;28;51712;-54
2021/09/30 03:27:03;;;;;;;;;1.50;1.00;;;;;21.04;39.10;102446.06;5031269;28;51813;-53
2021/09/30 03:29:29;;;;;;;;;1.50;0.00;;;;;21.01;38.76;102439.03;5032152;28;51125;-54
2021/09/30 03:31:55;;;;;;;;;0.00;0.00;;;;;21.00;39.04;102434.59;5025961;28;51060;-54
2021/09/30 03:34:20;;;;;;;;;4.00;1.00;;;;;20.98;39.00;102433.91;5019023;28;51927;-54
2021/09/30 03:36:46;;;;;;;;;0.50;0.50;;;;;20.95;39.07;102433.44;5025798;28;51088;-54
2021/09/30 03:39:15;;;;;;;;;1.00;1.00;;;;;20.95;38.92;102427.94;5026777;28;51118;-53
2021/09/30 03:41:42;;;;;;;;;0.75;0.75;;;;;20.93;38.96;102435.50;5026443;28;51275;-53
2021/09/30 03:44:09;;;;;;;;;0.00;0.00;;;;;20.92;38.93;102433.81;5032625;28;51830;-51
2021/09/30 03:46:35;;;;;;;;;1.25;1.00;;;;;20.90;39.18;102433.13;5034675;28;51260;-53
2021/09/30 03:49:07;;;;;;;;;2.00;0.00;;;;;20.88;38.90;102436.09;5035143;28;51379;-50
2021/09/30 03:51:52;;;;;;;;;3.00;1.00;;;;;20.88;39.00;102437.97;5022908;28;51270;-54
2021/09/30 03:54:39;;;;;;;;;0.00;0.00;;;;;20.85;39.02;102436.47;5017678;28;51983;-53
2021/09/30 03:59:30;;;;;;;;;0.00;0.00;;;;;20.83;38.63;102443.19;5033798;28;51129;-54
2021/09/30 04:01:57;;;;;;;;;1.50;1.00;;;;;20.81;38.86;102453.53;5034306;28;51041;-53
2021/09/30 04:04:28;;;;;;;;;0.00;0.00;;;;;20.78;38.69;102452.00;5035355;28;51851;-53
2021/09/30 04:06:56;;;;;;;;;1.50;1.00;;;;;20.77;38.90;102453.06;5018828;28;50981;-52
2021/09/30 04:09:26;;;;;;;;;2.50;1.00;;;;;20.75;39.13;102450.50;5027652;28;51239;-54
2021/09/30 04:12:01;;;;;;;;;0.25;0.25;;;;;20.75;39.41;102457.91;5025519;28;51052;-53
2021/09/30 04:14:28;;;;;;;;;2.00;0.25;;;;;20.73;39.45;102460.81;5021875;28;51274;-53
2021/09/30 04:16:54;;;;;;;;;1.25;0.25;;;;;20.72;39.12;102463.75;5025336;28;51086;-53
2021/09/30 04:19:20;;;;;;;;;1.00;0.00;;;;;20.71;39.39;102459.28;5029493;28;51131;-52
2021/09/30 04:21:47;;;;;;;;;1.00;1.00;;;;;20.68;39.25;102460.53;5017307;28;51196;-53
2021/09/30 04:24:14;;;;;;;;;4.25;1.00;;;;;20.67;39.07;102457.97;5016185;28;51203;-56
2021/09/30 04:26:40;;;;;;;;;1.00;1.00;;;;;20.66;39.09;102461.75;5027828;28;51225;-54
2021/09/30 04:29:06;;;;;;;;;0.00;0.00;;;;;20.65;38.98;102454.53;5029967;28;51049;-54
2021/09/30 04:31:31;;;;;;;;;1.00;1.00;;;;;20.62;39.41;102461.25;5018096;28;51263;-52
2021/09/30 04:33:57;;;;;;;;;1.75;1.00;;;;;20.61;39.13;102454.03;5017000;28;51215;-54
2021/09/30 04:36:22;;;;;;;;;2.00;0.75;;;;;20.60;39.59;102451.47;5029889;28;50955;-53
2021/09/30 04:38:49;;;;;;;;;3.00;1.75;;;;;20.59;39.38;102466.28;5025983;28;51135;-54
2021/09/30 04:41:16;;;;;;;;;1.00;0.75;;;;;20.56;38.98;102467.50;5032253;28;51103;-52
2021/09/30 04:43:44;;;;;;;;;1.00;1.00;;;;;20.54;39.23;102454.97;5022913;28;52165;-53
2021/09/30 04:46:09;;;;;;;;;1.50;1.50;;;;;20.52;39.53;102455.13;5028302;28;51321;-54
2021/09/30 04:48:35;;;;;;;;;1.00;1.00;;;;;20.50;39.51;102454.47;5033164;28;51394;-54
2021/09/30 04:51:00;;;;;;;;;3.75;2.00;;;;;20.46;39.53;102451.25;5030537;28;51456;-54
2021/09/30 04:53:25;;;;;;;;;1.50;1.50;;;;;20.45;39.34;102449.53;5015521;28;51239;-54
2021/09/30 04:55:51;;;;;;;;;1.75;1.00;;;;;20.43;39.46;102443.38;5015576;28;51108;-54
2021/09/30 04:58:16;;;;;;;;;2.75;1.00;;;;;20.40;39.47;102435.41;5027206;28;51218;-54
2021/09/30 05:00:41;;;;;;;;;2.00;2.00;;;;;20.40;39.37;102437.31;5026604;28;51142;-54
2021/09/30 05:03:07;;;;;;;;;1.00;1.00;;;;;20.39;39.19;102443.84;5015686;28;51798;-52
2021/09/30 05:05:32;;;;;;;;;1.00;1.00;;;;;20.36;39.37;102445.09;5015575;28;51213;-54
2021/09/30 05:07:57;;;;;;;;;2.00;1.00;;;;;20.36;39.40;102444.25;5015777;28;51124;-54
2021/09/30 05:10:30;;;;;;;;;1.50;1.00;;;;;20.34;39.68;102452.69;5027731;28;51149;-54
2021/09/30 05:12:57;;;;;;;;;1.00;1.00;;;;;20.33;39.44;102447.38;5016138;28;52154;-54
2021/09/30 05:15:22;;;;;;;;;1.50;1.00;;;;;20.32;39.54;102440.13;5022845;28;51419;-55
2021/09/30 05:17:48;;;;;;;;;1.50;1.50;;;;;20.31;39.84;102441.16;5016369;28;51126;-55
2021/09/30 05:20:13;;;;;;;;;1.00;1.00;;;;;20.30;39.69;102440.31;5028872;28;51108;-55
2021/09/30 05:22:38;;;;;;;;;5.25;2.00;;;;;20.30;39.78;102437.56;5024308;28;51053;-56
2021/09/30 05:25:04;;;;;;;;;1.50;1.50;;;;;20.32;39.93;102446.50;5018716;28;51058;-55
2021/09/30 05:27:29;;;;;;;;;1.75;0.00;;;;;20.32;40.23;102448.38;5029732;28;51063;-55
2021/09/30 05:29:55;;;;;;;;;0.00;0.00;;;;;20.32;40.18;102435.50;5031704;28;51975;-55
2021/09/30 05:32:20;;;;;;;;;2.50;1.25;;;;;20.33;40.44;102445.47;5030162;28;51787;-55
2021/09/30 05:34:46;;;;;;;;;1.50;0.00;;;;;20.36;40.39;102449.75;5026078;28;51110;-57
2021/09/30 05:37:11;;;;;;;;;1.00;1.00;;;;;20.36;40.67;102442.34;5028895;28;51385;-58
2021/09/30 05:39:36;;;;;;;;;0.25;0.25;;;;;20.38;40.73;102450.41;5028347;28;51675;-57
2021/09/30 05:42:02;;;;;;;;;0.25;0.25;;;;;20.38;41.25;102442.16;5027079;28;51222;-55
2021/09/30 05:44:29;;;;;;;;;1.00;1.00;;;;;20.40;41.18;102451.06;5025608;28;50996;-55
2021/09/30 05:46:55;;;;;;;;;1.00;1.00;;;;;20.41;41.37;102450.03;5028554;28;51152;-58
2021/09/30 05:49:22;;;;;;;;;4.00;1.00;;;;;20.42;41.35;102454.50;5028514;28;51275;-54
2021/09/30 05:51:48;;;;;;;;;1.50;1.00;;;;;20.44;41.52;102452.47;5029338;28;52983;-57
2021/09/30 05:54:13;;;;;;;;;2.00;0.75;;;;;20.44;41.58;102446.97;5028849;28;51030;-58
2021/09/30 05:56:38;;;;;;;;;1.00;1.00;;;;;20.45;41.57;102455.03;5036959;28;51397;-59
2021/09/30 05:59:04;;;;;;;;;1.00;1.00;;;;;20.47;41.42;102465.88;5033935;28;51385;-57
2021/09/30 06:06:09;;;;;;;;;3.25;2.25;;;;;20.51;41.40;102458.09;5024477;28;51093;-57
2021/09/30 06:12:29;;;;;;;;;2.25;1.00;;;;;20.55;42.00;102457.53;5027574;28;51602;-57
2021/09/30 06:14:55;;;;;;;;;1.00;1.00;;;;;20.58;42.18;102459.06;5023946;28;51396;-57
2021/09/30 06:17:20;;;;;;;;;2.25;2.00;;;;;20.58;42.38;102456.31;5031293;28;51192;-59
2021/09/30 06:19:46;;;;;;;;;1.75;1.00;;;;;20.61;42.04;102458.69;5028372;28;51363;-57
2021/09/30 06:22:11;;;;;;;;;3.25;2.00;;;;;20.62;42.54;102453.00;5017619;28;51243;-58
2021/09/30 06:24:37;;;;;;;;;2.00;2.00;;;;;20.65;42.21;102465.56;5026074;28;51165;-60
2021/09/30 06:27:03;;;;;;;;;3.00;1.75;;;;;20.65;43.39;102469.16;5027290;28;50968;-60
2021/09/30 06:29:31;;;;;;;;;1.00;1.00;;;;;20.69;43.19;102470.50;5029473;28;51240;-59
2021/09/30 06:31:57;;;;;;;;;2.75;1.00;;;;;20.70;43.56;102463.94;5024816;28;52001;-59
2021/09/30 06:34:22;;;;;;;;;2.75;1.00;;;;;20.73;43.44;102466.31;5025521;28;51093;-58
2021/09/30 06:36:48;;;;;;;;;4.00;2.00;;;;;20.75;43.19;102471.66;5028257;28;51098;-56
2021/09/30 06:39:13;;;;;;;;;2.50;1.00;;;;;20.75;43.54;102460.66;5030419;28;51967;-55
2021/09/30 06:41:38;;;;;;;;;4.00;1.00;;;;;20.78;43.11;102454.78;5028572;28;51943;-58
2021/09/30 06:44:04;;;;;;;;;5.00;2.25;;;;;20.80;43.18;102446.31;5030558;28;51113;-57
2021/09/30 06:46:29;;;;;;;;;4.00;3.00;;;;;20.82;42.72;102452.50;5027835;28;51405;-57
2021/09/30 06:48:55;;;;;;;;;2.00;2.00;;;;;20.83;42.91;102452.28;5024292;28;51304;-57
2021/09/30 06:51:20;;;;;;;;;1.75;1.75;;;;;20.85;43.13;102452.13;5025543;28;51788;-56
2021/09/30 06:53:46;;;;;;;;;1.75;1.25;;;;;20.85;42.89;102447.47;5029072;28;51029;-54
2021/09/30 06:56:15;;;;;;;;;1.75;1.25;;;;;20.85;42.96;102455.75;5026611;28;51305;-58
2021/09/30 06:58:46;;;;;;;;;3.00;2.00;;;;;20.85;42.92;102455.75;5021500;28;51259;-59
2021/09/30 07:01:15;;;;;;;;;4.25;3.50;;;;;20.88;42.92;102462.78;5028194;28;52011;-59
2021/09/30 07:03:41;;;;;;;;;4.00;2.75;;;;;20.88;42.51;102446.25;5032907;28;51404;-58
2021/09/30 07:06:06;;;;;;;;;5.00;2.75;;;;;20.89;42.57;102445.19;5020865;28;51108;-58
2021/09/30 07:08:31;;;;;;;;;3.75;3.00;;;;;20.89;42.48;102434.19;5023889;28;51200;-58
2021/09/30 07:10:57;;;;;;;;;5.75;3.25;;;;;20.89;42.64;102426.78;5024662;28;51389;-58
2021/09/30 07:13:22;;;;;;;;;3.25;2.00;;;;;20.90;42.23;102435.91;5016362;28;51136;-59
2021/09/30 07:15:49;;;;;;;;;2.75;1.50;;;;;20.90;42.10;102438.66;5022033;28;51224;-58
2021/09/30 07:18:19;;;;;;;;;3.00;3.00;;;;;20.89;42.67;102435.03;5019994;28;50959;-57
2021/09/30 07:20:46;;;;;;;;;4.00;4.00;;;;;20.89;42.31;102436.94;5017293;28;51845;-58
2021/09/30 07:23:11;;;;;;;;;3.50;3.00;;;;;20.89;42.03;102442.44;5016260;28;51108;-59
2021/09/30 07:25:37;;;;;;;;;4.25;2.25;;;;;20.89;42.68;102450.72;5019571;28;51875;-59
2021/09/30 07:28:03;;;;;;;;;5.50;3.75;;;;;20.88;42.04;102451.75;5022926;28;51675;-59
2021/09/30 07:30:28;;;;;;;;;3.75;3.25;;;;;20.89;42.27;102453.47;5032336;28;51638;-59
2021/09/30 07:32:53;;;;;;;;;5.75;2.75;;;;;20.90;42.52;102457.94;5020191;28;51064;-59
2021/09/30 07:35:19;;;;;;;;;5.25;3.25;;;;;20.90;42.64;102460.69;5016155;28;51139;-59
2021/09/30 07:37:45;;;;;;;;;2.75;2.50;;;;;20.90;42.55;102458.78;5020989;28;51124;-58
2021/09/30 07:40:11;;;;;;;;;2.00;2.00;;;;;20.91;42.32;102459.63;5030657;28;51787;-58
2021/09/30 07:42:37;;;;;;;;;4.50;4.25;;;;;20.91;42.16;102452.22;5031681;28;51047;-58
2021/09/30 07:45:03;;;;;;;;;5.00;3.00;;;;;20.91;42.08;102465.16;5027579;28;51122;-59
2021/09/30 07:47:29;;;;;;;;;3.00;3.00;;;;;20.92;42.42;102455.84;5022190;28;51373;-59
2021/09/30 07:49:54;;;;;;;;;2.50;1.75;;;;;20.92;42.09;102450.31;5014589;28;51096;-59
2021/09/30 07:52:19;;;;;;;;;4.25;3.25;;;;;20.92;42.56;102451.19;5023312;28;51081;-58
2021/09/30 07:54:45;;;;;;;;;3.00;2.00;;;;;20.93;42.15;102446.53;5030362;28;51780;-59
2021/09/30 07:57:10;;;;;;;;;4.25;3.25;;;;;20.96;42.04;102454.44;5029311;28;51068;-59
2021/09/30 07:59:36;;;;;;;;;5.00;3.25;;;;;20.95;42.06;102445.31;5029880;28;51685;-59
2021/09/30 08:02:01;;;;;;;;;3.00;3.00;;;;;20.98;42.39;102449.59;5015109;28;51116;-59
2021/09/30 08:04:27;;;;;;;;;4.50;2.50;;;;;20.99;42.43;102440.28;5022466;28;51308;-58
2021/09/30 08:06:52;;;;;;;;;2.00;2.00;;;;;21.00;42.03;102451.13;5017127;28;51230;-59
2021/09/30 08:09:19;;;;;;;;;3.00;3.00;;;;;21.03;41.98;102458.13;5031286;28;51096;-58
2021/09/30 08:11:45;;;;;;;;;3.25;3.00;;;;;21.07;42.08;102455.88;5015447;28;51262;-58
2021/09/30 08:14:10;;;;;;;;;3.00;3.00;;;;;21.09;42.06;102453.78;5015401;28;51053;-58
2021/09/30 08:16:36;;;;;;;;;6.00;3.00;;;;;21.12;42.04;102454.25;5024553;28;51160;-59
2021/09/30 08:19:01;;;;;;;;;5.50;2.25;;;;;21.15;42.18;102464.03;5028675;28;51302;-58
2021/09/30 08:21:27;;;;;;;;;3.50;3.50;;;;;21.16;42.16;102466.63;5015825;28;51126;-59
2021/09/30 08:23:53;;;;;;;;;3.25;3.25;;;;;21.18;42.27;102464.53;5028181;28;51091;-58
2021/09/30 08:26:19;;;;;;;;;3.00;3.00;;;;;21.20;42.11;102464.34;5020263;28;51088;-58
2021/09/30 08:28:49;;;;;;;;;4.00;4.00;;;;;21.21;42.21;102466.06;5017927;28;52328;-58
2021/09/30 08:31:15;;;;;;;;;5.00;2.75;;;;;21.23;41.90;102467.56;5026431;28;52160;-58
2021/09/30 08:33:42;;;;;;;;;2.00;2.00;;;;;21.24;42.08;102465.66;5029447;28;51172;-59
2021/09/30 08:36:12;;;;;;;;;1.75;1.75;;;;;21.26;42.04;102469.16;5016355;28;50917;-58
2021/09/30 08:38:38;;;;;;;;;2.50;2.50;;;;;21.30;41.94;102465.81;5022522;28;51214;-58
2021/09/30 08:41:04;;;;;;;;;2.75;2.75;;;;;21.35;41.76;102464.38;5028998;28;51124;-57
2021/09/30 08:43:30;;;;;;;;;3.75;3.50;;;;;21.39;42.81;102468.50;5022460;28;51520;-58
2021/09/30 08:45:55;;;;;;;;;3.00;3.00;;;;;21.44;42.61;102463.25;5017397;28;50991;-57
2021/09/30 08:48:22;;;;;;;;;2.00;2.00;;;;;21.49;42.71;102447.00;5017656;28;53719;-58
2021/09/30 08:50:48;;;;;;;;;4.00;2.00;;;;;21.53;42.48;102453.84;5020284;28;51191;-57
2021/09/30 08:53:13;;;;;;;;;2.50;2.50;;;;;21.58;42.08;102446.72;5023037;28;51293;-58
2021/09/30 08:55:40;;;;;;;;;2.50;2.50;;;;;21.64;42.51;102441.47;5027390;28;51340;-58
2021/09/30 08:58:07;;;;;;;;;4.00;3.00;;;;;21.69;42.04;102448.13;5026074;28;52215;-59
2021/09/30 09:00:36;;;;;;;;;1.75;1.75;;;;;21.74;41.93;102437.38;5029991;28;51265;-58
2021/09/30 09:03:01;;;;;;;;;4.50;2.00;;;;;21.79;41.88;102436.81;5026636;28;51035;-58
2021/09/30 09:05:27;;;;;;;;;2.00;1.00;;;;;21.83;42.34;102436.22;5028668;28;51073;-58
2021/09/30 09:08:04;;;;;;;;;3.00;3.00;;;;;21.88;41.98;102428.22;5025754;28;51176;-58
2021/09/30 09:10:37;;;;;;;;;3.50;2.00;;;;;21.94;41.84;102429.34;5022630;28;51061;-58
2021/09/30 09:13:04;;;;;;;;;1.00;1.00;;;;;21.99;42.30;102429.63;5022311;28;51149;-58
2021/09/30 09:15:57;;;;;;;;;2.00;2.00;;;;;22.05;42.35;102428.84;5025145;28;52323;-58
2021/09/30 09:18:46;;;;;;;;;3.25;2.50;;;;;22.10;42.19;102420.03;5021973;28;51686;-58
2021/09/30 09:21:15;;;;;;;;;1.00;1.00;;;;;22.16;41.62;102421.97;5023860;28;51138;-58
2021/09/30 09:23:57;;;;;;;;;4.00;2.00;;;;;22.22;41.66;102417.59;5023701;28;51258;-58
2021/09/30 09:26:27;;;;;;;;;1.25;1.00;;;;;22.27;42.10;102415.09;5027956;28;51207;-58
2021/09/30 09:29:06;;;;;;;;;4.75;3.00;;;;;22.32;41.43;102413.47;5024660;28;51334;-59
2021/09/30 09:31:40;;;;;;;;;0.50;0.50;;;;;22.36;41.64;102416.66;5020372;28;51525;-58
2021/09/30 09:34:23;;;;;;;;;2.00;2.00;;;;;22.41;41.53;102412.28;5022593;28;51267;-58
2021/09/30 09:36:51;;;;;;;;;2.00;2.00;;;;;22.46;41.36;102418.03;5023706;28;51390;-59
2021/09/30 09:39:33;;;;;;;;;3.00;1.00;;;;;22.52;41.83;102412.81;5024536;28;53228;-58
2021/09/30 09:42:14;;;;;;;;;2.50;1.75;;;;;22.55;41.76;102415.16;5020467;28;51130;-59
2021/09/30 09:45:13;;;;;;;;;2.00;2.00;;;;;22.59;41.06;102410.94;5022310;28;51387;-58
2021/09/30 09:47:41;;;;;;;;;1.50;1.50;;;;;22.64;40.96;102416.72;5017617;28;51329;-58
2021/09/30 09:50:14;;;;;;;;;2.00;1.00;;;;;22.67;41.61;102413.56;5020933;28;52493;-60
2021/09/30 09:52:48;;;;;;;;;1.50;1.00;;;;;22.70;41.48;102414.00;5021207;28;51384;-58
2021/09/30 09:55:28;;;;;;;;;0.00;0.00;;;;;22.74;41.45;102418.09;5024495;28;51202;-59
2021/09/30 09:58:11;;;;;;;;;3.25;1.75;;;;;22.79;40.96;102420.25;5025375;28;51217;-59
2021/09/30 10:00:57;;;;;;;;;3.50;2.00;;;;;22.83;41.55;102417.94;5019301;28;52976;-59
2021/09/30 10:03:30;;;;;;;;;1.25;1.00;;;;;22.86;41.51;102412.06;5024482;28;51255;-63
2021/09/30 10:05:57;;;;;;;;;2.25;1.75;;;;;22.89;41.33;102408.88;5025080;28;51238;-60
2021/09/30 10:08:22;;;;;;;;;2.00;1.00;;;;;22.91;40.70;102402.09;5025496;28;51139;-59
2021/09/30 10:10:49;;;;;;;;;4.00;3.00;;;;;22.95;40.69;102394.28;5025111;28;51792;-59
2021/09/30 10:13:16;;;;;;;;;1.75;1.75;;;;;22.98;41.21;102404.91;5022188;28;51476;-59
2021/09/30 10:15:43;;;;;;;;;3.00;3.00;;;;;23.01;40.80;102396.19;5026336;28;51116;-59
2021/09/30 10:18:10;;;;;;;;;2.75;2.00;;;;;23.03;40.60;102406.03;5025771;28;51201;-58
2021/09/30 10:20:38;;;;;;;;;3.00;1.00;;;;;23.05;40.68;102400.28;5029234;28;51234;-58
2021/09/30 10:23:06;;;;;;;;;0.25;0.25;;;;;23.06;40.69;102404.75;5023725;28;51034;-59
2021/09/30 10:25:37;;;;;;;;;0.00;0.00;;;;;23.08;40.77;102407.31;5025985;28;51106;-58
2021/09/30 10:28:06;;;;;;;;;3.00;1.75;;;;;23.08;40.74;102399.03;5028489;28;51212;-58
2021/09/30 10:30:39;;;;;;;;;2.50;2.00;;;;;23.12;40.94;102403.94;5024382;28;52324;-57
2021/09/30 10:33:20;;;;;;;;;2.25;2.00;;;;;23.13;40.45;102402.88;5025738;28;51183;-58
2021/09/30 10:35:52;;;;;;;;;5.50;5.50;;;;;23.15;40.71;102402.69;5032416;28;51072;-58
2021/09/30 10:38:24;;;;;;;;;6.00;3.75;;;;;23.16;40.68;102402.50;5029838;28;51050;-58
2021/09/30 10:41:09;;;;;;;;;6.00;6.00;;;;;23.19;40.68;102395.69;5019847;28;51780;-58
2021/09/30 10:43:46;;;;;;;;;5.00;5.00;;;;;23.21;40.54;102388.03;5025609;28;51239;-59
2021/09/30 10:46:26;;;;;;;;;5.50;5.25;;;;;23.22;40.96;102382.31;5032861;28;50996;-58
2021/09/30 10:48:55;;;;;;;;;4.00;4.00;;;;;23.24;40.59;102395.91;5025864;28;51262;-58
2021/09/30 10:51:22;;;;;;;;;4.25;4.25;;;;;23.25;40.87;102392.13;5028812;28;51074;-58
2021/09/30 10:53:48;;;;;;;;;4.50;4.50;;;;;23.26;40.35;102393.84;5027916;28;51364;-59
2021/09/30 10:56:33;;;;;;;;;4.33;4.33;;;;;23.26;40.56;102389.16;5034344;28;50976;-59
2021/09/30 10:59:22;;;;;;;;;5.00;3.00;;;;;23.27;39.99;102370.66;5025382;28;51234;-59
2021/09/30 11:01:47;;;;;;;;;3.50;3.50;;;;;23.28;39.87;102358.53;5023161;28;51834;-62
2021/09/30 11:04:14;;;;;;;;;3.00;3.00;;;;;23.27;39.84;102359.59;5028328;28;51203;-59
2021/09/30 11:06:40;;;;;;;;;3.25;3.25;;;;;23.27;40.10;102352.16;5026256;28;51232;-58
2021/09/30 11:09:18;;;;;;;;;2.75;2.00;;;;;23.28;39.68;102351.09;5028900;28;51141;-58
2021/09/30 11:11:49;;;;;;;;;2.00;2.00;;;;;23.28;39.96;102348.31;5029324;28;51937;-59
2021/09/30 11:14:23;;;;;;;;;2.75;2.75;;;;;23.28;39.96;102345.56;5023141;28;51021;-58
2021/09/30 11:16:51;;;;;;;;;4.75;3.00;;;;;23.27;40.33;102343.00;5035871;28;51187;-60
2021/09/30 11:19:28;;;;;;;;;2.00;2.00;;;;;23.27;39.99;102343.00;5024730;28;51314;-59
2021/09/30 11:21:56;;;;;;;;;2.00;2.00;;;;;23.27;40.08;102337.47;5032791;28;51728;-60
2021/09/30 11:24:23;;;;;;;;;3.00;1.00;;;;;23.26;39.85;102325.56;5037339;28;51632;-60
2021/09/30 11:26:48;;;;;;;;;1.50;1.00;;;;;23.26;39.63;102322.78;5036437;28;51009;-59
2021/09/30 11:29:24;;;;;;;;;2.00;2.00;;;;;23.25;39.72;102325.78;5024994;28;51121;-60
2021/09/30 11:32:09;;;;;;;;;2.75;2.75;;;;;23.24;39.58;102313.88;5025154;28;51433;-59
2021/09/30 11:34:46;;;;;;;;;2.25;2.25;;;;;23.23;39.05;102319.56;5033309;28;51002;-60
2021/09/30 11:37:14;;;;;;;;;2.00;0.75;;;;;23.22;38.92;102318.72;5023967;28;51177;-59
2021/09/30 11:39:40;;;;;;;;;3.00;3.00;;;;;23.21;39.20;102316.16;5031016;28;51125;-59
2021/09/30 11:42:05;;;;;;;;;2.00;2.00;;;;;23.20;38.98;102326.38;5035441;28;51082;-59
2021/09/30 11:44:31;;;;;;;;;4.00;1.00;;;;;23.20;39.06;102317.22;5035456;28;51064;-59
2021/09/30 11:46:58;;;;;;;;;1.75;1.75;;;;;23.19;38.58;102324.66;5035159;28;51074;-59
2021/09/30 11:49:25;;;;;;;;;1.50;1.50;;;;;23.19;38.62;102312.75;5033969;28;51468;-59
2021/09/30 11:51:57;;;;;;;;;3.50;3.00;;;;;23.18;38.54;102302.75;5035208;28;52059;-59
2021/09/30 11:54:25;;;;;;;;;2.50;2.50;;;;;23.17;38.52;102317.66;5035365;28;51156;-59
2021/09/30 11:56:55;;;;;;;;;2.25;1.00;;;;;23.15;38.60;102305.94;5035113;28;51030;-59
2021/09/30 11:59:24;;;;;;;;;2.25;1.25;;;;;23.14;38.50;102304.25;5033277;28;51053;-60
2021/09/30 12:01:55;;;;;;;;;1.00;1.00;;;;;23.12;38.38;102311.88;5015432;28;52648;-59
2021/09/30 12:04:38;;;;;;;;;2.00;1.00;;;;;;;;5015648;28;51025;-59
2021/09/30 12:07:04;;;;;;;;;1.00;1.00;;;;;23.07;37.77;102289.53;5015404;28;51076;-59
2021/09/30 12:09:34;;;;;;;;;2.25;1.75;;;;;23.05;37.72;102295.25;5015097;28;51325;-59
2021/09/30 12:12:03;;;;;;;;;2.00;2.00;;;;;23.03;37.56;102289.06;5034998;28;51906;-63
2021/09/30 12:14:39;;;;;;;;;2.25;2.25;;;;;23.01;37.35;102278.22;5035253;28;51485;-60
2021/09/30 12:17:07;;;;;;;;;2.00;1.00;;;;;23.00;37.58;102275.66;5035088;28;51210;-60
2021/09/30 12:19:39;;;;;;;;;2.25;1.00;;;;;22.99;37.70;102268.44;5035715;28;51685;-60
2021/09/30 12:22:16;;;;;;;;;1.00;1.00;;;;;22.96;37.71;102264.19;5025998;28;53022;-59
2021/09/30 12:24:50;;;;;;;;;2.00;1.00;;;;;22.94;37.14;102249.72;5015396;28;51120;-59
2021/09/30 12:27:18;;;;;;;;;1.00;1.00;;;;;22.94;37.79;102249.72;5037241;28;51150;-60
2021/09/30 12:29:52;;;;;;;;;1.00;1.00;;;;;22.90;37.21;102237.34;5029259;28;51468;-60
2021/09/30 12:32:22;;;;;;;;;2.00;0.25;;;;;22.90;37.34;102242.88;5015092;28;51268;-60
2021/09/30 12:34:59;;;;;;;;;4.00;2.00;;;;;22.88;37.26;102245.00;5020541;28;51405;-63
2021/09/30 12:37:27;;;;;;;;;1.00;1.00;;;;;22.86;36.64;102236.06;5027232;28;51296;-59
2021/09/30 12:40:11;;;;;;;;;2.00;2.00;;;;;22.85;36.29;102250.09;5029357;28;51548;-59
2021/09/30 12:42:38;;;;;;;;;2.00;0.00;;;;;22.82;36.05;102251.31;5027035;28;52057;-59
2021/09/30 12:45:05;;;;;;;;;1.00;1.00;;;;;22.79;35.23;102240.66;5028622;28;51087;-59
2021/09/30 12:47:40;;;;;;;;;1.00;1.00;;;;;22.74;35.66;102229.38;5027716;28;51570;-60
2021/09/30 12:50:12;;;;;;;;;0.75;0.75;;;;;22.72;35.77;102231.50;5023573;28;51353;-60
2021/09/30 12:52:39;;;;;;;;;2.25;0.00;;;;;22.70;35.43;102231.69;5026179;28;51950;-60
2021/09/30 12:55:28;;;;;;;;;1.25;0.50;;;;;22.69;35.08;102224.47;5023693;28;51248;-58
2021/09/30 12:57:54;;;;;;;;;1.25;1.00;;;;;22.68;35.27;102220.00;5030858;28;51310;-58
2021/09/30 13:00:20;;;;;;;;;2.25;2.00;;;;;22.68;35.41;102219.16;5020833;28;51223;-58
2021/09/30 13:02:47;;;;;;;;;0.50;0.50;;;;;22.69;35.44;102221.69;5025237;28;52576;-59
2021/09/30 13:05:13;;;;;;;;;1.00;1.00;;;;;22.70;35.84;102211.50;5024423;28;51358;-59
2021/09/30 13:07:56;;;;;;;;;1.50;0.50;;;;;22.70;35.86;102206.81;5022427;28;51108;-58
2021/09/30 13:10:30;;;;;;;;;0.50;0.00;;;;;22.72;35.47;102190.06;5023473;28;51096;-59
2021/09/30 13:13:08;;;;;;;;;1.00;1.00;;;;;22.72;35.59;102188.16;5025207;28;51933;-58
2021/09/30 13:15:38;;;;;;;;;1.00;0.50;;;;;22.74;35.89;102185.19;5022143;28;52626;-59
2021/09/30 13:18:05;;;;;;;;;2.00;2.00;;;;;22.74;35.56;102175.00;5027119;28;51429;-59
2021/09/30 13:20:30;;;;;;;;;1.00;1.00;;;;;22.74;35.73;102175.00;5020574;28;51323;-59
2021/09/30 13:22:56;;;;;;;;;1.75;0.25;;;;;22.77;36.06;102170.97;5026334;28;51168;-59
2021/09/30 13:25:22;;;;;;;;;1.75;1.00;;;;;22.79;36.12;102165.22;5026546;28;51054;-59
2021/09/30 13:27:50;;;;;;;;;1.00;1.00;;;;;22.80;36.25;102166.94;5023155;28;51291;-58
2021/09/30 13:30:22;;;;;;;;;2.75;0.50;;;;;22.81;35.96;102165.88;5027857;28;51205;-59
2021/09/30 13:32:48;;;;;;;;;0.00;0.00;;;;;22.81;36.14;102172.25;5026824;28;51175;-59
2021/09/30 13:35:15;;;;;;;;;2.00;0.75;;;;;22.82;36.11;102170.34;5026734;28;51186;-59
2021/09/30 13:37:41;;;;;;;;;0.75;0.75;;;;;22.83;36.20;102161.88;5026868;28;51336;-60
2021/09/30 13:40:08;;;;;;;;;3.00;1.00;;;;;22.84;36.21;102155.31;5025717;28;52552;-59
2021/09/30 13:42:36;;;;;;;;;1.00;1.00;;;;;22.85;36.06;102156.16;5031532;28;53676;-59
2021/09/30 13:45:06;;;;;;;;;1.00;1.00;;;;;22.86;35.62;102150.41;5032603;28;51591;-59
2021/09/30 13:47:32;;;;;;;;;2.75;2.75;;;;;22.86;36.55;102150.41;5022647;28;51150;-58
2021/09/30 13:49:58;;;;;;;;;1.75;1.00;;;;;22.86;36.39;102147.66;5023767;28;51381;-60
2021/09/30 13:52:25;;;;;;;;;1.00;1.00;;;;;22.87;35.80;102145.75;5028820;28;51879;-58
2021/09/30 13:54:50;;;;;;;;;1.00;1.00;;;;;22.85;35.90;102140.44;5023767;28;51095;-58
2021/09/30 13:57:16;;;;;;;;;3.00;1.00;;;;;22.86;36.26;102138.53;5030064;28;51111;-61
2021/09/30 13:59:41;;;;;;;;;0.75;0.75;;;;;22.87;36.19;102140.22;5029045;28;52226;-60
2021/09/30 14:02:07;;;;;;;;;1.25;0.75;;;;;22.87;36.49;102135.53;5027443;28;51163;-60
2021/09/30 14:04:35;;;;;;;;;2.50;1.00;;;;;22.87;36.25;102127.25;5034551;28;51084;-60
2021/09/30 14:07:05;;;;;;;;;3.00;1.50;;;;;22.86;36.40;102122.78;5034660;28;51362;-60
2021/09/30 14:09:32;;;;;;;;;2.00;0.25;;;;;22.87;36.08;102096.00;5023197;28;51017;-60
2021/09/30 14:11:58;;;;;;;;;1.00;1.00;;;;;22.88;35.67;102103.25;5032562;28;51861;-60
2021/09/30 14:14:23;;;;;;;;;1.00;1.00;;;;;22.88;36.10;102101.31;5028145;28;51171;-60
2021/09/30 14:16:49;;;;;;;;;0.75;0.25;;;;;22.89;36.07;102100.25;5033207;28;51495;-60
2021/09/30 14:19:18;;;;;;;;;1.50;1.50;;;;;22.89;35.92;102089.22;5025223;28;51566;-60
2021/09/30 14:21:44;;;;;;;;;1.00;0.00;;;;;22.90;35.56;102090.06;5028554;28;52035;-60
2021/09/30 14:24:10;;;;;;;;;1.75;1.00;;;;;22.92;35.80;102085.16;5031835;28;51148;-61
2021/09/30 14:26:36;;;;;;;;;2.00;0.75;;;;;22.92;35.40;102077.72;5030127;28;51250;-60
2021/09/30 14:29:02;;;;;;;;;3.00;1.00;;;;;22.93;35.39;102078.63;5034829;28;51170;-60
2021/09/30 14:31:27;;;;;;;;;1.00;1.00;;;;;22.93;35.22;102067.56;5034485;28;51225;-60